Terminal Aerodrome Forecast
Issued by NWS

Home | Current Version | Previous Version | Graphics & Text | Print | Product List | Glossary On
Versions: 1 2 3 4 5 6 7 8 9 10 11 12 13
000
FTUS43 KMPX 292335
TAFAXN
TAF
KAXN 292335Z 3000/3024 32017G23KT P6SM SCT080
     FM300100 29012KT P6SM BKN080
     FM300400 28006KT P6SM OVC070
     FM301200 17005KT P6SM OVC060
     FM301800 23009KT P6SM BKN050
     FM302100 28010KT P6SM SCT050=

USA.gov is the U.S. government's official web portal to all federal, state and local government web resources and services.